Terminal Aerodrome Forecast
Issued by NWS La Crosse, WI

Home | Current Version | Previous Version | Text Only | Print | Product List | Glossary On
Versions: 1 2 3 4 5 6 7 8 9 10 11 12 13 14 15 16 17 18 19 20 21 22 23 24 25 26 27 28 29 30 31 32 33 34 35 36 37 38 39 40 41 42 43 44 45
000
FTUS43 KARX 141109 AAB
TAFLSE
TAF AMD
KLSE 141109Z 1411/1506 16006KT 6SM BR SKC
     FM141400 31010KT P6SM SCT030
     FM141700 31014G22KT P6SM VCSH BKN040
     FM150200 32009KT P6SM BKN040=

USA.gov is the U.S. government's official web portal to all federal, state and local government web resources and services.